Yankeetown, Florida
Current Conditions -  °F | °C
As of 12:35 PM on Wednesday 26 Nov 2014 (Local Time) from KCGC Reporting Station
Scattered Clouds Scattered Clouds  
Wind Chill: 59°   Ceiling: Unl
Heat Index: 59°   Visibility: 10mi
Dew Point: 48°   Wind: 10mph
Humidity: 67%   Direction: 280°W
Pressure: 30.17"   Gusts: NA
Location:  29.03°N, 82.72°W
Report Text: KCGC 261735Z AUTO 28009KT 10SM SCT023 15/09 A3017 RMK AO2
Loading
Personal Weather Stations






























Interactive Weather Map New forecast layout! Learn more

10-Day Weather Forecast

Advertisements
Track Severe Weather on mobile